sensor_id;sensor_type;location;lat;lon;timestamp;temperature;humidity
4530;DHT22;2277;51.626;7.516;2023-03-03T00:00:49;5.90;99.90
4530;DHT22;2277;51.626;7.516;2023-03-03T00:03:18;5.90;99.90
4530;DHT22;2277;51.626;7.516;2023-03-03T00:05:44;5.80;99.90
4530;DHT22;2277;51.626;7.516;2023-03-03T00:08:10;5.90;99.90
4530;DHT22;2277;51.626;7.516;2023-03-03T00:10:37;5.90;99.90
4530;DHT22;2277;51.626;7.516;2023-03-03T00:13:03;5.90;99.90
4530;DHT22;2277;51.626;7.516;2023-03-03T00:15:30;5.90;99.90
4530;DHT22;2277;51.626;7.516;2023-03-03T00:17:56;5.60;99.90
4530;DHT22;2277;51.626;7.516;2023-03-03T00:22:47;5.70;99.90
4530;DHT22;2277;51.626;7.516;2023-03-03T00:25:30;5.70;99.90
4530;DHT22;2277;51.626;7.516;2023-03-03T00:28:09;5.70;99.90
4530;DHT22;2277;51.626;7.516;2023-03-03T00:30:40;5.70;99.90
4530;DHT22;2277;51.626;7.516;2023-03-03T00:33:31;5.70;99.90
4530;DHT22;2277;51.626;7.516;2023-03-03T00:38:41;5.80;99.90
4530;DHT22;2277;51.626;7.516;2023-03-03T00:41:27;5.80;99.90
4530;DHT22;2277;51.626;7.516;2023-03-03T00:43:53;5.90;99.90
4530;DHT22;2277;51.626;7.516;2023-03-03T00:46:22;5.90;99.90
4530;DHT22;2277;51.626;7.516;2023-03-03T00:48:49;5.90;99.90
4530;DHT22;2277;51.626;7.516;2023-03-03T00:51:29;5.90;99.90
4530;DHT22;2277;51.626;7.516;2023-03-03T00:53:56;5.90;99.90
4530;DHT22;2277;51.626;7.516;2023-03-03T00:56:22;5.90;99.90
4530;DHT22;2277;51.626;7.516;2023-03-03T00:58:48;5.80;99.90
4530;DHT22;2277;51.626;7.516;2023-03-03T01:01:15;5.80;99.90
4530;DHT22;2277;51.626;7.516;2023-03-03T01:03:41;5.90;99.90
4530;DHT22;2277;51.626;7.516;2023-03-03T01:06:07;5.90;99.90
4530;DHT22;2277;51.626;7.516;2023-03-03T01:08:32;6.00;99.90
4530;DHT22;2277;51.626;7.516;2023-03-03T01:11:03;6.00;99.90
4530;DHT22;2277;51.626;7.516;2023-03-03T01:13:32;6.00;99.90
4530;DHT22;2277;51.626;7.516;2023-03-03T01:15:59;6.00;99.90
4530;DHT22;2277;51.626;7.516;2023-03-03T01:18:26;6.00;99.90
4530;DHT22;2277;51.626;7.516;2023-03-03T01:20:51;6.00;99.90
4530;DHT22;2277;51.626;7.516;2023-03-03T01:23:17;6.00;99.90
4530;DHT22;2277;51.626;7.516;2023-03-03T01:25:43;5.90;99.90
4530;DHT22;2277;51.626;7.516;2023-03-03T01:28:09;5.60;99.90
4530;DHT22;2277;51.626;7.516;2023-03-03T01:30:35;5.70;99.90
4530;DHT22;2277;51.626;7.516;2023-03-03T01:33:00;5.70;99.90
4530;DHT22;2277;51.626;7.516;2023-03-03T01:35:26;5.80;99.90
4530;DHT22;2277;51.626;7.516;2023-03-03T01:37:52;5.70;99.90
4530;DHT22;2277;51.626;7.516;2023-03-03T01:40:21;5.70;99.90
4530;DHT22;2277;51.626;7.516;2023-03-03T01:42:47;5.70;99.90
4530;DHT22;2277;51.626;7.516;2023-03-03T01:45:17;5.80;99.90
4530;DHT22;2277;51.626;7.516;2023-03-03T01:48:09;5.80;99.90
4530;DHT22;2277;51.626;7.516;2023-03-03T01:53:04;5.90;99.90
4530;DHT22;2277;51.626;7.516;2023-03-03T01:55:36;5.90;99.90
4530;DHT22;2277;51.626;7.516;2023-03-03T01:58:10;5.80;99.90
4530;DHT22;2277;51.626;7.516;2023-03-03T02:00:40;5.70;99.90
4530;DHT22;2277;51.626;7.516;2023-03-03T02:03:06;5.80;99.90
4530;DHT22;2277;51.626;7.516;2023-03-03T02:05:33;5.90;99.90
4530;DHT22;2277;51.626;7.516;2023-03-03T02:07:59;5.90;99.90
4530;DHT22;2277;51.626;7.516;2023-03-03T02:10:26;5.90;99.90
4530;DHT22;2277;51.626;7.516;2023-03-03T02:12:55;6.00;99.90
4530;DHT22;2277;51.626;7.516;2023-03-03T02:15:32;5.90;99.90
4530;DHT22;2277;51.626;7.516;2023-03-03T02:18:09;5.90;99.90
4530;DHT22;2277;51.626;7.516;2023-03-03T02:26:20;5.90;99.90
4530;DHT22;2277;51.626;7.516;2023-03-03T02:28:47;5.90;99.90
4530;DHT22;2277;51.626;7.516;2023-03-03T02:31:16;5.90;99.90
4530;DHT22;2277;51.626;7.516;2023-03-03T02:33:45;6.00;99.90
4530;DHT22;2277;51.626;7.516;2023-03-03T02:36:32;6.00;99.90
4530;DHT22;2277;51.626;7.516;2023-03-03T02:42:07;5.80;99.90
4530;DHT22;2277;51.626;7.516;2023-03-03T02:44:34;5.80;99.90
4530;DHT22;2277;51.626;7.516;2023-03-03T02:47:00;5.80;99.90
4530;DHT22;2277;51.626;7.516;2023-03-03T02:49:29;5.80;99.90
4530;DHT22;2277;51.626;7.516;2023-03-03T02:51:58;5.80;99.90
4530;DHT22;2277;51.626;7.516;2023-03-03T02:54:26;5.80;99.90
4530;DHT22;2277;51.626;7.516;2023-03-03T02:56:52;5.80;99.90
4530;DHT22;2277;51.626;7.516;2023-03-03T02:59:18;5.80;99.90
4530;DHT22;2277;51.626;7.516;2023-03-03T03:01:45;5.60;99.90
4530;DHT22;2277;51.626;7.516;2023-03-03T03:04:13;5.60;99.90
4530;DHT22;2277;51.626;7.516;2023-03-03T03:06:39;5.60;99.90
4530;DHT22;2277;51.626;7.516;2023-03-03T03:09:06;5.60;99.90
4530;DHT22;2277;51.626;7.516;2023-03-03T03:11:33;5.60;99.90
4530;DHT22;2277;51.626;7.516;2023-03-03T03:14:03;5.60;99.90
4530;DHT22;2277;51.626;7.516;2023-03-03T03:16:29;5.60;99.90
4530;DHT22;2277;51.626;7.516;2023-03-03T03:18:56;5.50;99.90
4530;DHT22;2277;51.626;7.516;2023-03-03T03:21:22;5.50;99.90
4530;DHT22;2277;51.626;7.516;2023-03-03T03:23:47;5.40;99.90
4530;DHT22;2277;51.626;7.516;2023-03-03T03:26:13;5.30;99.90
4530;DHT22;2277;51.626;7.516;2023-03-03T03:28:39;5.40;99.90
4530;DHT22;2277;51.626;7.516;2023-03-03T03:31:06;5.40;99.90
4530;DHT22;2277;51.626;7.516;2023-03-03T03:33:33;5.30;99.90
4530;DHT22;2277;51.626;7.516;2023-03-03T03:35:59;5.40;99.90
4530;DHT22;2277;51.626;7.516;2023-03-03T03:38:25;5.30;99.90
4530;DHT22;2277;51.626;7.516;2023-03-03T03:40:54;5.30;99.90
4530;DHT22;2277;51.626;7.516;2023-03-03T03:43:20;5.40;99.90
4530;DHT22;2277;51.626;7.516;2023-03-03T03:45:46;5.30;99.90
4530;DHT22;2277;51.626;7.516;2023-03-03T03:48:12;5.20;99.90
4530;DHT22;2277;51.626;7.516;2023-03-03T03:50:38;5.20;99.90
4530;DHT22;2277;51.626;7.516;2023-03-03T03:53:05;5.10;99.90
4530;DHT22;2277;51.626;7.516;2023-03-03T03:55:31;5.10;99.90
4530;DHT22;2277;51.626;7.516;2023-03-03T03:57:57;5.10;99.90
4530;DHT22;2277;51.626;7.516;2023-03-03T04:00:23;5.10;99.90
4530;DHT22;2277;51.626;7.516;2023-03-03T04:02:49;5.10;99.90
4530;DHT22;2277;51.626;7.516;2023-03-03T04:05:15;5.00;99.90
4530;DHT22;2277;51.626;7.516;2023-03-03T04:07:41;5.00;99.90
4530;DHT22;2277;51.626;7.516;2023-03-03T04:10:07;5.00;99.90
4530;DHT22;2277;51.626;7.516;2023-03-03T04:12:32;5.00;99.90
4530;DHT22;2277;51.626;7.516;2023-03-03T04:15:10;5.00;99.90
4530;DHT22;2277;51.626;7.516;2023-03-03T04:17:36;5.00;99.90
4530;DHT22;2277;51.626;7.516;2023-03-03T04:20:03;5.00;99.90
4530;DHT22;2277;51.626;7.516;2023-03-03T04:22:29;5.10;99.90
4530;DHT22;2277;51.626;7.516;2023-03-03T04:24:59;5.10;99.90
4530;DHT22;2277;51.626;7.516;2023-03-03T04:27:25;5.00;99.90
4530;DHT22;2277;51.626;7.516;2023-03-03T04:29:50;5.00;99.90
4530;DHT22;2277;51.626;7.516;2023-03-03T04:32:16;5.00;99.90
4530;DHT22;2277;51.626;7.516;2023-03-03T04:34:43;4.90;99.90
4530;DHT22;2277;51.626;7.516;2023-03-03T04:37:09;4.90;99.90
4530;DHT22;2277;51.626;7.516;2023-03-03T04:39:35;4.90;99.90
4530;DHT22;2277;51.626;7.516;2023-03-03T04:42:00;5.00;99.90
4530;DHT22;2277;51.626;7.516;2023-03-03T04:44:26;5.00;99.90
4530;DHT22;2277;51.626;7.516;2023-03-03T04:46:51;5.10;99.90
4530;DHT22;2277;51.626;7.516;2023-03-03T04:49:17;5.10;99.90
4530;DHT22;2277;51.626;7.516;2023-03-03T04:51:43;4.90;99.90
4530;DHT22;2277;51.626;7.516;2023-03-03T04:54:08;5.00;99.90
4530;DHT22;2277;51.626;7.516;2023-03-03T04:56:34;5.00;99.90
4530;DHT22;2277;51.626;7.516;2023-03-03T04:59:00;5.00;99.90
4530;DHT22;2277;51.626;7.516;2023-03-03T05:01:25;5.10;99.90
4530;DHT22;2277;51.626;7.516;2023-03-03T05:03:51;5.10;99.90
4530;DHT22;2277;51.626;7.516;2023-03-03T05:06:16;5.10;99.90
4530;DHT22;2277;51.626;7.516;2023-03-03T05:08:44;5.10;99.90
4530;DHT22;2277;51.626;7.516;2023-03-03T05:11:10;5.10;99.90
4530;DHT22;2277;51.626;7.516;2023-03-03T05:13:36;5.20;99.90
4530;DHT22;2277;51.626;7.516;2023-03-03T05:16:02;5.20;99.90
4530;DHT22;2277;51.626;7.516;2023-03-03T05:18:27;5.30;99.90
4530;DHT22;2277;51.626;7.516;2023-03-03T05:20:53;5.30;99.90
4530;DHT22;2277;51.626;7.516;2023-03-03T05:23:19;5.30;99.90
4530;DHT22;2277;51.626;7.516;2023-03-03T05:25:49;5.30;99.90
4530;DHT22;2277;51.626;7.516;2023-03-03T05:28:15;5.30;99.90
4530;DHT22;2277;51.626;7.516;2023-03-03T05:30:40;5.20;99.90
4530;DHT22;2277;51.626;7.516;2023-03-03T05:33:06;5.10;99.90
4530;DHT22;2277;51.626;7.516;2023-03-03T05:35:32;4.80;99.90
4530;DHT22;2277;51.626;7.516;2023-03-03T05:37:58;4.40;99.90
4530;DHT22;2277;51.626;7.516;2023-03-03T05:40:24;4.50;99.90
4530;DHT22;2277;51.626;7.516;2023-03-03T05:42:50;4.40;99.90
4530;DHT22;2277;51.626;7.516;2023-03-03T05:45:17;4.50;99.90
4530;DHT22;2277;51.626;7.516;2023-03-03T05:47:48;4.60;99.90
4530;DHT22;2277;51.626;7.516;2023-03-03T05:50:14;4.60;99.90
4530;DHT22;2277;51.626;7.516;2023-03-03T05:52:40;4.70;99.90
4530;DHT22;2277;51.626;7.516;2023-03-03T05:55:06;4.70;99.90
4530;DHT22;2277;51.626;7.516;2023-03-03T05:57:31;4.80;99.90
4530;DHT22;2277;51.626;7.516;2023-03-03T05:59:57;4.80;99.90
4530;DHT22;2277;51.626;7.516;2023-03-03T06:02:23;4.80;99.90
4530;DHT22;2277;51.626;7.516;2023-03-03T06:04:48;4.90;99.90
4530;DHT22;2277;51.626;7.516;2023-03-03T06:07:14;4.90;99.90
4530;DHT22;2277;51.626;7.516;2023-03-03T06:09:39;4.90;99.90
4530;DHT22;2277;51.626;7.516;2023-03-03T06:12:05;4.90;99.90
4530;DHT22;2277;51.626;7.516;2023-03-03T06:14:31;4.80;99.90
4530;DHT22;2277;51.626;7.516;2023-03-03T06:16:57;4.80;99.90
4530;DHT22;2277;51.626;7.516;2023-03-03T06:19:23;4.80;99.90
4530;DHT22;2277;51.626;7.516;2023-03-03T06:21:49;4.80;99.90
4530;DHT22;2277;51.626;7.516;2023-03-03T06:24:14;4.80;99.90
4530;DHT22;2277;51.626;7.516;2023-03-03T06:26:40;4.90;99.90
4530;DHT22;2277;51.626;7.516;2023-03-03T06:29:07;4.80;99.90
4530;DHT22;2277;51.626;7.516;2023-03-03T06:31:32;4.80;99.90
4530;DHT22;2277;51.626;7.516;2023-03-03T06:33:58;4.80;99.90
4530;DHT22;2277;51.626;7.516;2023-03-03T06:36:24;4.80;99.90
4530;DHT22;2277;51.626;7.516;2023-03-03T06:38:50;4.80;99.90
4530;DHT22;2277;51.626;7.516;2023-03-03T06:41:16;4.80;99.90
4530;DHT22;2277;51.626;7.516;2023-03-03T06:43:41;4.80;99.90
4530;DHT22;2277;51.626;7.516;2023-03-03T06:46:07;4.70;99.90
4530;DHT22;2277;51.626;7.516;2023-03-03T06:48:33;4.70;99.90
4530;DHT22;2277;51.626;7.516;2023-03-03T06:51:00;4.80;99.90
4530;DHT22;2277;51.626;7.516;2023-03-03T06:53:26;4.80;99.90
4530;DHT22;2277;51.626;7.516;2023-03-03T06:55:54;4.90;99.90
4530;DHT22;2277;51.626;7.516;2023-03-03T06:58:21;4.90;99.90
4530;DHT22;2277;51.626;7.516;2023-03-03T07:00:56;4.80;99.90
4530;DHT22;2277;51.626;7.516;2023-03-03T07:03:27;4.80;99.90
4530;DHT22;2277;51.626;7.516;2023-03-03T07:05:57;4.90;99.90
4530;DHT22;2277;51.626;7.516;2023-03-03T07:08:24;4.90;99.90
4530;DHT22;2277;51.626;7.516;2023-03-03T07:10:51;4.90;99.90
4530;DHT22;2277;51.626;7.516;2023-03-03T07:13:23;5.00;99.90
4530;DHT22;2277;51.626;7.516;2023-03-03T07:15:51;5.00;99.90
4530;DHT22;2277;51.626;7.516;2023-03-03T07:21:25;5.00;99.90
4530;DHT22;2277;51.626;7.516;2023-03-03T07:23:52;5.00;99.90
4530;DHT22;2277;51.626;7.516;2023-03-03T07:26:20;5.00;99.90
4530;DHT22;2277;51.626;7.516;2023-03-03T07:31:45;5.00;99.90
4530;DHT22;2277;51.626;7.516;2023-03-03T07:34:20;4.90;99.90
4530;DHT22;2277;51.626;7.516;2023-03-03T07:36:46;4.70;99.90
4530;DHT22;2277;51.626;7.516;2023-03-03T07:39:35;4.70;99.90
4530;DHT22;2277;51.626;7.516;2023-03-03T07:42:15;4.80;99.90
4530;DHT22;2277;51.626;7.516;2023-03-03T07:44:42;4.90;99.90
4530;DHT22;2277;51.626;7.516;2023-03-03T07:49:43;4.90;99.90
4530;DHT22;2277;51.626;7.516;2023-03-03T07:54:44;5.10;99.90
4530;DHT22;2277;51.626;7.516;2023-03-03T07:57:24;5.10;99.90
4530;DHT22;2277;51.626;7.516;2023-03-03T08:05:41;4.80;99.90
4530;DHT22;2277;51.626;7.516;2023-03-03T08:10:50;4.90;99.90
4530;DHT22;2277;51.626;7.516;2023-03-03T08:13:23;4.90;99.90
4530;DHT22;2277;51.626;7.516;2023-03-03T08:16:01;5.00;99.90
4530;DHT22;2277;51.626;7.516;2023-03-03T08:18:35;5.00;99.90
4530;DHT22;2277;51.626;7.516;2023-03-03T08:21:12;5.00;99.90
4530;DHT22;2277;51.626;7.516;2023-03-03T08:23:38;4.90;99.90
4530;DHT22;2277;51.626;7.516;2023-03-03T08:26:03;5.00;99.90
4530;DHT22;2277;51.626;7.516;2023-03-03T08:28:29;5.00;99.90
4530;DHT22;2277;51.626;7.516;2023-03-03T08:30:55;4.90;99.90
4530;DHT22;2277;51.626;7.516;2023-03-03T08:33:20;5.00;99.90
4530;DHT22;2277;51.626;7.516;2023-03-03T08:35:47;5.00;99.90
4530;DHT22;2277;51.626;7.516;2023-03-03T08:38:15;5.00;99.90
4530;DHT22;2277;51.626;7.516;2023-03-03T08:40:42;5.10;99.90
4530;DHT22;2277;51.626;7.516;2023-03-03T08:43:08;5.00;99.90
4530;DHT22;2277;51.626;7.516;2023-03-03T08:45:34;5.00;99.90
4530;DHT22;2277;51.626;7.516;2023-03-03T08:48:00;5.00;99.90
4530;DHT22;2277;51.626;7.516;2023-03-03T08:50:27;5.00;99.90
4530;DHT22;2277;51.626;7.516;2023-03-03T08:52:53;5.00;99.90
4530;DHT22;2277;51.626;7.516;2023-03-03T08:55:19;5.00;99.90
4530;DHT22;2277;51.626;7.516;2023-03-03T08:57:45;4.90;99.90
4530;DHT22;2277;51.626;7.516;2023-03-03T09:00:13;4.90;99.90
4530;DHT22;2277;51.626;7.516;2023-03-03T09:02:39;4.80;99.90
4530;DHT22;2277;51.626;7.516;2023-03-03T09:05:05;4.90;99.90
4530;DHT22;2277;51.626;7.516;2023-03-03T09:07:31;4.90;99.90
4530;DHT22;2277;51.626;7.516;2023-03-03T09:09:57;4.80;99.90
4530;DHT22;2277;51.626;7.516;2023-03-03T09:12:35;4.90;99.90
4530;DHT22;2277;51.626;7.516;2023-03-03T09:17:39;4.90;99.90
4530;DHT22;2277;51.626;7.516;2023-03-03T09:25:50;5.00;99.90
4530;DHT22;2277;51.626;7.516;2023-03-03T09:28:28;4.90;99.90
4530;DHT22;2277;51.626;7.516;2023-03-03T09:31:00;4.90;99.90
4530;DHT22;2277;51.626;7.516;2023-03-03T09:33:27;5.00;99.90
4530;DHT22;2277;51.626;7.516;2023-03-03T09:36:29;5.00;99.90
4530;DHT22;2277;51.626;7.516;2023-03-03T09:39:00;5.10;99.90
4530;DHT22;2277;51.626;7.516;2023-03-03T10:00:30;5.20;99.90
4530;DHT22;2277;51.626;7.516;2023-03-03T10:13:17;5.20;99.90
4530;DHT22;2277;51.626;7.516;2023-03-03T10:19:23;5.30;99.90
4530;DHT22;2277;51.626;7.516;2023-03-03T10:23:55;5.40;99.90
4530;DHT22;2277;51.626;7.516;2023-03-03T10:35:07;5.60;99.90
4530;DHT22;2277;51.626;7.516;2023-03-03T10:37:52;5.70;99.90
4530;DHT22;2277;51.626;7.516;2023-03-03T10:40:25;5.70;99.90
4530;DHT22;2277;51.626;7.516;2023-03-03T10:57:16;5.90;99.90
4530;DHT22;2277;51.626;7.516;2023-03-03T11:07:45;5.90;99.90
4530;DHT22;2277;51.626;7.516;2023-03-03T11:41:33;6.30;99.90
4530;DHT22;2277;51.626;7.516;2023-03-03T11:44:28;6.30;99.90
4530;DHT22;2277;51.626;7.516;2023-03-03T11:49:46;6.30;99.90
4530;DHT22;2277;51.626;7.516;2023-03-03T11:52:47;6.30;99.90
4530;DHT22;2277;51.626;7.516;2023-03-03T11:55:15;6.30;99.90
4530;DHT22;2277;51.626;7.516;2023-03-03T12:00:42;6.20;99.90
4530;DHT22;2277;51.626;7.516;2023-03-03T12:03:16;6.00;99.90
4530;DHT22;2277;51.626;7.516;2023-03-03T12:06:02;5.90;99.90
4530;DHT22;2277;51.626;7.516;2023-03-03T12:16:55;5.60;99.90
4530;DHT22;2277;51.626;7.516;2023-03-03T12:19:31;5.80;99.90
4530;DHT22;2277;51.626;7.516;2023-03-03T12:22:12;6.00;99.90
4530;DHT22;2277;51.626;7.516;2023-03-03T12:27:37;6.30;99.90
4530;DHT22;2277;51.626;7.516;2023-03-03T12:30:16;6.40;99.90
4530;DHT22;2277;51.626;7.516;2023-03-03T12:35:45;6.50;99.90
4530;DHT22;2277;51.626;7.516;2023-03-03T12:41:29;6.60;99.90
4530;DHT22;2277;51.626;7.516;2023-03-03T12:44:14;6.60;99.90
4530;DHT22;2277;51.626;7.516;2023-03-03T12:49:08;6.90;99.90
4530;DHT22;2277;51.626;7.516;2023-03-03T12:54:23;6.70;99.90
4530;DHT22;2277;51.626;7.516;2023-03-03T12:57:15;6.50;99.90
4530;DHT22;2277;51.626;7.516;2023-03-03T13:05:00;6.90;99.90
4530;DHT22;2277;51.626;7.516;2023-03-03T13:10:37;7.30;99.90
4530;DHT22;2277;51.626;7.516;2023-03-03T13:13:21;7.40;99.90
4530;DHT22;2277;51.626;7.516;2023-03-03T13:16:09;7.60;99.90
4530;DHT22;2277;51.626;7.516;2023-03-03T13:19:56;7.60;99.90
4530;DHT22;2277;51.626;7.516;2023-03-03T13:21:54;7.80;99.90
4530;DHT22;2277;51.626;7.516;2023-03-03T13:27:16;8.10;99.90
4530;DHT22;2277;51.626;7.516;2023-03-03T13:32:40;8.10;99.90
4530;DHT22;2277;51.626;7.516;2023-03-03T13:35:17;8.20;99.90
4530;DHT22;2277;51.626;7.516;2023-03-03T13:37:51;8.30;99.90
4530;DHT22;2277;51.626;7.516;2023-03-03T13:42:50;8.40;99.90
4530;DHT22;2277;51.626;7.516;2023-03-03T13:54:08;8.90;99.90
4530;DHT22;2277;51.626;7.516;2023-03-03T13:56:53;9.00;99.90
4530;DHT22;2277;51.626;7.516;2023-03-03T14:02:42;9.20;99.90
4530;DHT22;2277;51.626;7.516;2023-03-03T14:08:08;9.30;99.90
4530;DHT22;2277;51.626;7.516;2023-03-03T14:13:51;9.60;99.90
4530;DHT22;2277;51.626;7.516;2023-03-03T14:16:42;9.70;99.90
4530;DHT22;2277;51.626;7.516;2023-03-03T14:19:25;9.90;99.90
4530;DHT22;2277;51.626;7.516;2023-03-03T14:22:17;10.00;99.90
4530;DHT22;2277;51.626;7.516;2023-03-03T14:25:13;10.10;99.90
4530;DHT22;2277;51.626;7.516;2023-03-03T14:30:30;10.50;99.90
4530;DHT22;2277;51.626;7.516;2023-03-03T14:33:17;10.50;99.90
4530;DHT22;2277;51.626;7.516;2023-03-03T14:35:59;10.50;99.90
4530;DHT22;2277;51.626;7.516;2023-03-03T14:41:15;10.30;99.90
4530;DHT22;2277;51.626;7.516;2023-03-03T14:43:43;10.50;99.90
4530;DHT22;2277;51.626;7.516;2023-03-03T14:48:53;10.70;99.90
4530;DHT22;2277;51.626;7.516;2023-03-03T14:51:33;10.90;99.90
4530;DHT22;2277;51.626;7.516;2023-03-03T14:54:08;11.00;99.90
4530;DHT22;2277;51.626;7.516;2023-03-03T14:56:36;11.00;99.90
4530;DHT22;2277;51.626;7.516;2023-03-03T14:59:22;11.00;99.90
4530;DHT22;2277;51.626;7.516;2023-03-03T15:04:33;11.10;99.90
4530;DHT22;2277;51.626;7.516;2023-03-03T15:09:51;11.10;99.90
4530;DHT22;2277;51.626;7.516;2023-03-03T15:14:51;11.10;99.90
4530;DHT22;2277;51.626;7.516;2023-03-03T15:20:30;11.10;99.90
4530;DHT22;2277;51.626;7.516;2023-03-03T15:23:06;11.20;99.90
4530;DHT22;2277;51.626;7.516;2023-03-03T15:25:52;11.30;99.90
4530;DHT22;2277;51.626;7.516;2023-03-03T15:28:51;11.30;99.90
4530;DHT22;2277;51.626;7.516;2023-03-03T15:34:32;11.20;99.90
4530;DHT22;2277;51.626;7.516;2023-03-03T15:43:05;11.00;99.90
4530;DHT22;2277;51.626;7.516;2023-03-03T15:48:42;11.00;99.90
4530;DHT22;2277;51.626;7.516;2023-03-03T15:56:51;10.80;99.90
4530;DHT22;2277;51.626;7.516;2023-03-03T16:02:21;10.70;99.90
4530;DHT22;2277;51.626;7.516;2023-03-03T16:05:33;10.60;99.90
4530;DHT22;2277;51.626;7.516;2023-03-03T16:08:25;10.50;99.90
4530;DHT22;2277;51.626;7.516;2023-03-03T16:11:14;10.40;99.90
4530;DHT22;2277;51.626;7.516;2023-03-03T16:25:17;10.00;99.90
4530;DHT22;2277;51.626;7.516;2023-03-03T16:30:24;9.70;99.90
4530;DHT22;2277;51.626;7.516;2023-03-03T16:35:52;9.60;99.90
4530;DHT22;2277;51.626;7.516;2023-03-03T16:38:26;9.30;99.90
4530;DHT22;2277;51.626;7.516;2023-03-03T16:40:58;9.30;99.90
4530;DHT22;2277;51.626;7.516;2023-03-03T16:43:53;9.30;99.90
4530;DHT22;2277;51.626;7.516;2023-03-03T16:46:44;9.30;99.90
4530;DHT22;2277;51.626;7.516;2023-03-03T16:54:38;9.10;99.90
4530;DHT22;2277;51.626;7.516;2023-03-03T17:00:17;9.00;99.90
4530;DHT22;2277;51.626;7.516;2023-03-03T17:05:19;8.90;99.90
4530;DHT22;2277;51.626;7.516;2023-03-03T17:13:21;8.80;99.90
4530;DHT22;2277;51.626;7.516;2023-03-03T17:16:13;8.70;99.90
4530;DHT22;2277;51.626;7.516;2023-03-03T17:29:37;8.40;99.90
4530;DHT22;2277;51.626;7.516;2023-03-03T17:32:23;8.40;99.90
4530;DHT22;2277;51.626;7.516;2023-03-03T17:38:18;8.20;99.90
4530;DHT22;2277;51.626;7.516;2023-03-03T17:40:54;8.20;99.90
4530;DHT22;2277;51.626;7.516;2023-03-03T17:46:00;8.10;99.90
4530;DHT22;2277;51.626;7.516;2023-03-03T17:57:30;7.80;99.90
4530;DHT22;2277;51.626;7.516;2023-03-03T18:02:53;7.70;99.90
4530;DHT22;2277;51.626;7.516;2023-03-03T18:13:36;7.40;99.90
4530;DHT22;2277;51.626;7.516;2023-03-03T18:26:52;7.10;99.90
4530;DHT22;2277;51.626;7.516;2023-03-03T18:29:26;7.10;99.90
4530;DHT22;2277;51.626;7.516;2023-03-03T18:37:06;7.00;99.90
4530;DHT22;2277;51.626;7.516;2023-03-03T18:39:44;7.00;99.90
4530;DHT22;2277;51.626;7.516;2023-03-03T18:44:50;7.00;99.90
4530;DHT22;2277;51.626;7.516;2023-03-03T18:47:16;7.10;99.90
4530;DHT22;2277;51.626;7.516;2023-03-03T18:50:07;7.10;99.90
4530;DHT22;2277;51.626;7.516;2023-03-03T18:53:12;7.10;99.90
4530;DHT22;2277;51.626;7.516;2023-03-03T18:55:45;7.10;99.90
4530;DHT22;2277;51.626;7.516;2023-03-03T19:00:53;7.10;99.90
4530;DHT22;2277;51.626;7.516;2023-03-03T19:03:35;7.10;99.90
4530;DHT22;2277;51.626;7.516;2023-03-03T19:06:02;7.20;99.90
4530;DHT22;2277;51.626;7.516;2023-03-03T19:08:51;7.20;99.90
4530;DHT22;2277;51.626;7.516;2023-03-03T19:11:32;7.20;99.90
4530;DHT22;2277;51.626;7.516;2023-03-03T19:14:30;7.20;99.90
4530;DHT22;2277;51.626;7.516;2023-03-03T19:16:58;7.30;99.90
4530;DHT22;2277;51.626;7.516;2023-03-03T19:19:29;7.30;99.90
4530;DHT22;2277;51.626;7.516;2023-03-03T19:22:26;7.30;99.90
4530;DHT22;2277;51.626;7.516;2023-03-03T19:27:42;7.40;99.90
4530;DHT22;2277;51.626;7.516;2023-03-03T19:38:17;7.40;99.90
4530;DHT22;2277;51.626;7.516;2023-03-03T19:41:17;7.40;99.90
4530;DHT22;2277;51.626;7.516;2023-03-03T19:51:05;7.40;99.90
4530;DHT22;2277;51.626;7.516;2023-03-03T20:12:32;7.10;99.90
4530;DHT22;2277;51.626;7.516;2023-03-03T20:15:15;7.10;99.90
4530;DHT22;2277;51.626;7.516;2023-03-03T20:18:06;7.00;99.90
4530;DHT22;2277;51.626;7.516;2023-03-03T20:20:40;7.00;99.90
4530;DHT22;2277;51.626;7.516;2023-03-03T20:23:28;7.00;99.90
4530;DHT22;2277;51.626;7.516;2023-03-03T20:26:14;7.00;99.90
4530;DHT22;2277;51.626;7.516;2023-03-03T20:28:51;7.10;99.90
4530;DHT22;2277;51.626;7.516;2023-03-03T20:31:23;7.10;99.90
4530;DHT22;2277;51.626;7.516;2023-03-03T20:34:13;7.10;99.90
4530;DHT22;2277;51.626;7.516;2023-03-03T20:37:07;7.20;99.90
4530;DHT22;2277;51.626;7.516;2023-03-03T20:39:48;7.20;99.90
4530;DHT22;2277;51.626;7.516;2023-03-03T20:50:38;7.30;99.90
4530;DHT22;2277;51.626;7.516;2023-03-03T20:53:45;7.30;99.90
4530;DHT22;2277;51.626;7.516;2023-03-03T21:04:17;7.30;99.90
4530;DHT22;2277;51.626;7.516;2023-03-03T21:06:43;7.30;99.90
4530;DHT22;2277;51.626;7.516;2023-03-03T21:09:30;7.30;99.90
4530;DHT22;2277;51.626;7.516;2023-03-03T21:11:58;7.30;99.90
4530;DHT22;2277;51.626;7.516;2023-03-03T21:14:32;7.30;99.90
4530;DHT22;2277;51.626;7.516;2023-03-03T21:16:59;7.30;99.90
4530;DHT22;2277;51.626;7.516;2023-03-03T21:19:31;7.30;99.90
4530;DHT22;2277;51.626;7.516;2023-03-03T21:21:59;7.30;99.90
4530;DHT22;2277;51.626;7.516;2023-03-03T21:24:56;7.30;99.90
4530;DHT22;2277;51.626;7.516;2023-03-03T21:27:29;7.30;99.90
4530;DHT22;2277;51.626;7.516;2023-03-03T21:30:21;7.30;99.90
4530;DHT22;2277;51.626;7.516;2023-03-03T21:32:48;7.30;99.90
4530;DHT22;2277;51.626;7.516;2023-03-03T21:37:56;7.20;99.90
4530;DHT22;2277;51.626;7.516;2023-03-03T21:40:24;7.20;99.90
4530;DHT22;2277;51.626;7.516;2023-03-03T21:42:51;7.20;99.90
4530;DHT22;2277;51.626;7.516;2023-03-03T21:45:18;7.20;99.90
4530;DHT22;2277;51.626;7.516;2023-03-03T21:47:48;7.20;99.90
4530;DHT22;2277;51.626;7.516;2023-03-03T21:50:15;7.20;99.90
4530;DHT22;2277;51.626;7.516;2023-03-03T21:52:40;7.20;99.90
4530;DHT22;2277;51.626;7.516;2023-03-03T21:55:06;7.20;99.90
4530;DHT22;2277;51.626;7.516;2023-03-03T21:57:32;7.20;99.90
4530;DHT22;2277;51.626;7.516;2023-03-03T22:00:00;7.20;99.90
4530;DHT22;2277;51.626;7.516;2023-03-03T22:02:26;7.20;99.90
4530;DHT22;2277;51.626;7.516;2023-03-03T22:04:52;7.20;99.90
4530;DHT22;2277;51.626;7.516;2023-03-03T22:07:17;7.20;99.90
4530;DHT22;2277;51.626;7.516;2023-03-03T22:09:43;7.20;99.90
4530;DHT22;2277;51.626;7.516;2023-03-03T22:12:08;7.20;99.90
4530;DHT22;2277;51.626;7.516;2023-03-03T22:14:34;7.30;99.90
4530;DHT22;2277;51.626;7.516;2023-03-03T22:17:00;7.30;99.90
4530;DHT22;2277;51.626;7.516;2023-03-03T22:19:25;7.30;99.90
4530;DHT22;2277;51.626;7.516;2023-03-03T22:21:51;7.30;99.90
4530;DHT22;2277;51.626;7.516;2023-03-03T22:24:17;7.30;99.90
4530;DHT22;2277;51.626;7.516;2023-03-03T22:26:43;7.30;99.90
4530;DHT22;2277;51.626;7.516;2023-03-03T22:29:09;7.30;99.90
4530;DHT22;2277;51.626;7.516;2023-03-03T22:31:35;7.30;99.90
4530;DHT22;2277;51.626;7.516;2023-03-03T22:34:01;7.30;99.90
4530;DHT22;2277;51.626;7.516;2023-03-03T22:36:26;7.30;99.90
4530;DHT22;2277;51.626;7.516;2023-03-03T22:38:52;7.30;99.90
4530;DHT22;2277;51.626;7.516;2023-03-03T22:41:18;7.30;99.90
4530;DHT22;2277;51.626;7.516;2023-03-03T22:43:44;7.30;99.90
4530;DHT22;2277;51.626;7.516;2023-03-03T22:46:10;7.30;99.90
4530;DHT22;2277;51.626;7.516;2023-03-03T22:48:36;7.30;99.90
4530;DHT22;2277;51.626;7.516;2023-03-03T22:51:02;7.30;99.90
4530;DHT22;2277;51.626;7.516;2023-03-03T22:53:27;7.30;99.90
4530;DHT22;2277;51.626;7.516;2023-03-03T22:55:53;7.30;99.90
4530;DHT22;2277;51.626;7.516;2023-03-03T22:58:19;7.40;99.90
4530;DHT22;2277;51.626;7.516;2023-03-03T23:00:48;7.40;99.90
4530;DHT22;2277;51.626;7.516;2023-03-03T23:03:14;7.40;99.90
4530;DHT22;2277;51.626;7.516;2023-03-03T23:05:40;7.40;99.90
4530;DHT22;2277;51.626;7.516;2023-03-03T23:08:09;7.40;99.90
4530;DHT22;2277;51.626;7.516;2023-03-03T23:10:35;7.40;99.90
4530;DHT22;2277;51.626;7.516;2023-03-03T23:13:00;7.40;99.90
4530;DHT22;2277;51.626;7.516;2023-03-03T23:15:26;7.40;99.90